»·PEaware :: N2378B KSBP-KSMX

N2378B :: KSBP-KSMX

FLIGHT INFORMATION

Flight Status: Arrived
Operator: Privately registered:
United States
More flights under this callsign
Pilot: Walter H. (12328)
Aircraft: CESSNA 172 SKYHAWK
(C172)
More flights by this aircraft type
Origin: KSBP San Luis Co Regl
United States
Destination: KSMX Santa Maria Pub/Capt Hancock
United States
More flights between these airports :: More routes between these airports
Route: KSBP DCT WINCH DCT KSMX
File this flight plan on PilotEdge
Remarks:
Altitude:
(Current/Filed)
5,500ft
Speed:
(Current/Filed)
120kts
Departed: 13-Feb-20 12:01 PM
Arrived: 13-Feb-20 12:19 PM
Distance/Time
Traveled:
22nm/0:18
Distance/Time
To Go:
Arrived

Flight Plot

Page will automatically refresh every two minutes.

Flight plan parsing failed; only flown route is shown


Map Options




Map Legend


Flown Route
Filed Route
Departure Airport
Arrival Airport
Navaid (VOR, NDB)
Fix

Horizontal Profiles

Position Reports

Time Latitude Longitude Heading Altitude Ground
Speed
13-Feb-20 11:41 35.238248 -120.639994 308 216ft 0kts
13-Feb-20 11:42 35.238248 -120.639994 308 216ft 0kts
13-Feb-20 11:43 35.238248 -120.639994 308 216ft 0kts
13-Feb-20 11:44 35.238248 -120.639994 308 216ft 0kts
13-Feb-20 11:45 35.238248 -120.639994 308 216ft 0kts
13-Feb-20 11:46 35.238248 -120.639994 308 216ft 0kts
13-Feb-20 11:47 35.238248 -120.639994 308 216ft 0kts
13-Feb-20 11:48 35.238248 -120.639994 308 216ft 0kts
13-Feb-20 11:49 35.238248 -120.639994 308 216ft 0kts
13-Feb-20 11:50 35.238248 -120.639994 308 216ft 0kts
13-Feb-20 11:51 35.238248 -120.639994 308 216ft 0kts
13-Feb-20 11:52 35.238248 -120.639994 308 216ft 0kts
13-Feb-20 11:53 35.238248 -120.639994 308 216ft 0kts
13-Feb-20 11:54 35.238248 -120.639994 308 216ft 0kts
13-Feb-20 11:55 35.236146 -120.637019 127 216ft 31kts
13-Feb-20 11:56 35.233185 -120.632341 206 216ft 0kts
13-Feb-20 11:57 35.233185 -120.632341 206 216ft 0kts
13-Feb-20 11:58 35.233185 -120.632341 206 216ft 0kts
13-Feb-20 11:59 35.232854 -120.632826 271 216ft 6kts
13-Feb-20 12:00 35.243515 -120.651432 305 575ft 106kts
13-Feb-20 12:01 35.237271 -120.659141 134 1419ft 112kts
13-Feb-20 12:02 35.211040 -120.635720 175 1877ft 124kts
13-Feb-20 12:03 35.178263 -120.644249 200 2374ft 123kts
13-Feb-20 12:04 35.145614 -120.651866 187 2973ft 118kts
13-Feb-20 12:05 35.112855 -120.656494 187 3577ft 118kts
13-Feb-20 12:06 35.080350 -120.660555 170 4176ft 117kts
13-Feb-20 12:07 35.054461 -120.638566 135 4780ft 114kts
13-Feb-20 12:08 35.031585 -120.611861 134 5383ft 113kts
13-Feb-20 12:09 35.010992 -120.587644 133 4964ft 87kts
13-Feb-20 12:10 34.995296 -120.569075 133 4451ft 73kts
13-Feb-20 12:11 34.984405 -120.548154 106 3964ft 80kts
13-Feb-20 12:12 34.975852 -120.515171 116 2645ft 124kts
13-Feb-20 12:13 34.957729 -120.482155 144 1583ft 96kts
13-Feb-20 12:14 34.937244 -120.464046 148 1223ft 85kts
13-Feb-20 12:15 34.917401 -120.447933 147 978ft 85kts
13-Feb-20 12:16 34.898586 -120.432179 145 799ft 81kts
13-Feb-20 12:17 34.889521 -120.441969 316 470ft 79kts
13-Feb-20 12:18 34.900368 -120.453536 0 265ft 4kts
13-Feb-20 12:19 34.900373 -120.453535 0 265ft 0kts
13-Feb-20 12:20 34.900503 -120.453541 355 265ft 0kts
13-Feb-20 12:21 34.900315 -120.452351 132 265ft 0kts
13-Feb-20 12:22 34.900245 -120.451015 49 265ft 15kts
13-Feb-20 12:23 34.900367 -120.450860 43 265ft 0kts
13-Feb-20 12:24 34.900367 -120.450860 43 265ft 0kts
13-Feb-20 12:25 34.900367 -120.450860 43 265ft 0kts
13-Feb-20 12:26 34.900367 -120.450860 43 265ft 0kts
13-Feb-20 12:27 34.900367 -120.450860 43 265ft 0kts
13-Feb-20 12:28 34.900367 -120.450860 43 265ft 0kts
13-Feb-20 12:30 34.900367 -120.450860 43 265ft 0kts
13-Feb-20 12:31 34.900367 -120.450860 43 265ft 0kts
13-Feb-20 12:32 34.900367 -120.450860 43 265ft 0kts
13-Feb-20 12:33 34.900367 -120.450860 43 265ft 0kts

Navigation Log

Ident Type
Flight plan parsing failed, navigation log unavailable